Time;durP1;ratioP1;P1;durP2;ratioP2;P2;SDS_P1;SDS_P2;PMS_P1;PMS_P2;Temp;Humidity;BMP_temperature;BMP_pressure;BME280_temperature;BME280_humidity;BME280_pressure;Samples;Min_cycle;Max_cycle;Signal;HPM_P1;HPM_P2
2024/03/01 00:01:45;;;;;;;16.30;10.60;;;;;;;;;;5117048;27;20864;-64
2024/03/01 00:04:13;;;;;;;3.97;3.83;;;;;;;;;;5121031;27;20515;-64
2024/03/01 00:06:40;;;;;;;7.77;6.20;;;;;;;;;;5105146;28;20474;-64
2024/03/01 00:09:06;;;;;;;26.43;18.43;;;;;;;;;;5113639;28;20487;-64
2024/03/01 00:11:33;;;;;;;6.37;5.77;;;;;;;;;;5113295;28;20525;-65
2024/03/01 00:13:59;;;;;;;11.03;8.37;;;;;;;;;;5116108;27;20442;-65
2024/03/01 00:16:25;;;;;;;12.07;7.93;;;;;;;;;;5111800;28;20469;-64
2024/03/01 00:18:52;;;;;;;5.67;5.20;;;;;;;;;;5111143;28;20477;-65
2024/03/01 00:21:20;;;;;;;8.43;7.00;;;;;;;;;;5111967;28;20454;-65
2024/03/01 00:23:46;;;;;;;12.67;8.03;;;;;;;;;;5110973;28;20450;-64
2024/03/01 00:26:12;;;;;;;4.30;4.13;;;;;;;;;;5115993;27;21369;-64
2024/03/01 00:28:38;;;;;;;7.17;6.40;;;;;;;;;;5117388;28;20510;-65
2024/03/01 00:31:05;;;;;;;3.30;3.20;;;;;;;;;;5117914;27;20213;-65
2024/03/01 00:33:32;;;;;;;5.33;4.97;;;;;;;;;;5121611;27;20458;-65
2024/03/01 00:35:58;;;;;;;8.40;7.03;;;;;;;;;;5121622;27;20462;-65
2024/03/01 00:38:26;;;;;;;7.30;6.80;;;;;;;;;;5125697;27;20441;-65
2024/03/01 00:40:53;;;;;;;4.90;4.50;;;;;;;;;;5119375;27;20451;-65
2024/03/01 00:43:19;;;;;;;18.80;11.37;;;;;;;;;;5122647;27;20441;-65
2024/03/01 00:45:46;;;;;;;3.50;3.30;;;;;;;;;;5115380;28;20481;-64
2024/03/01 00:48:13;;;;;;;7.67;6.93;;;;;;;;;;5118200;27;20868;-64
2024/03/01 00:50:39;;;;;;;8.43;7.90;;;;;;;;;;5134358;27;20533;-64
2024/03/01 00:53:06;;;;;;;5.67;5.33;;;;;;;;;;5127510;27;20485;-64
2024/03/01 00:55:34;;;;;;;5.03;4.53;;;;;;;;;;5119305;27;20465;-64
2024/03/01 00:58:01;;;;;;;5.70;5.20;;;;;;;;;;5117077;27;20461;-65
2024/03/01 01:00:28;;;;;;;8.93;5.70;;;;;;;;;;5127024;27;20471;-64
2024/03/01 01:02:55;;;;;;;16.97;8.87;;;;;;;;;;5109281;28;20525;-64
2024/03/01 01:05:22;;;;;;;8.77;4.10;;;;;;;;;;5117704;27;20911;-64
2024/03/01 01:07:47;;;;;;;2.63;2.53;;;;;;;;;;5128844;27;20444;-64
2024/03/01 01:10:15;;;;;;;5.93;5.17;;;;;;;;;;5124452;27;20508;-64
2024/03/01 01:12:43;;;;;;;6.23;5.80;;;;;;;;;;5117267;27;20216;-64
2024/03/01 01:15:09;;;;;;;6.30;5.87;;;;;;;;;;5117097;27;20443;-64
2024/03/01 01:17:36;;;;;;;2.73;2.63;;;;;;;;;;5117870;27;20442;-64
2024/03/01 01:20:03;;;;;;;5.83;5.53;;;;;;;;;;5111457;27;20533;-64
2024/03/01 01:22:29;;;;;;;7.40;6.90;;;;;;;;;;5123017;27;20450;-64
2024/03/01 01:24:56;;;;;;;8.60;7.43;;;;;;;;;;5117714;27;20500;-64
2024/03/01 01:27:22;;;;;;;6.20;5.03;;;;;;;;;;5120762;27;20438;-64
2024/03/01 01:29:50;;;;;;;3.57;3.47;;;;;;;;;;5132331;27;20493;-64
2024/03/01 01:32:17;;;;;;;3.70;3.50;;;;;;;;;;5112264;28;20484;-64
2024/03/01 01:34:44;;;;;;;14.67;9.17;;;;;;;;;;5118157;27;20446;-64
2024/03/01 01:37:10;;;;;;;3.10;3.00;;;;;;;;;;5123356;27;20442;-64
2024/03/01 01:39:37;;;;;;;13.70;9.30;;;;;;;;;;5108022;28;20512;-64
2024/03/01 01:42:03;;;;;;;3.40;3.30;;;;;;;;;;5108769;27;20451;-64
2024/03/01 01:44:31;;;;;;;2.30;2.20;;;;;;;;;;5123264;27;20462;-64
2024/03/01 01:47:00;;;;;;;6.80;6.30;;;;;;;;;;5114922;27;20472;-64
2024/03/01 01:49:28;;;;;;;15.23;11.23;;;;;;;;;;5112520;28;20490;-64
2024/03/01 01:51:54;;;;;;;6.70;6.20;;;;;;;;;;5113243;28;20468;-65
2024/03/01 01:54:21;;;;;;;11.20;8.97;;;;;;;;;;5125109;27;20446;-64
2024/03/01 01:56:47;;;;;;;4.97;4.63;;;;;;;;;;5119360;27;20445;-65
2024/03/01 01:59:14;;;;;;;7.10;6.40;;;;;;;;;;5113667;28;20446;-64
2024/03/01 02:01:40;;;;;;;6.63;6.13;;;;;;;;;;5109680;28;21066;-64
2024/03/01 02:04:08;;;;;;;17.60;11.23;;;;;;;;;;5115661;27;20508;-64
2024/03/01 02:06:35;;;;;;;14.80;10.00;;;;;;;;;;5112005;28;20441;-64
2024/03/01 02:09:12;;;;;;;6.40;6.00;;;;;;;;;;5116547;28;20944;-64
2024/03/01 02:11:38;;;;;;;8.03;5.33;;;;;;;;;;5107827;27;20445;-64
2024/03/01 02:14:05;;;;;;;21.20;10.23;;;;;;;;;;5123296;28;20438;-65
2024/03/01 02:16:31;;;;;;;21.67;10.17;;;;;;;;;;5116053;28;20457;-65
2024/03/01 02:18:58;;;;;;;15.43;11.70;;;;;;;;;;5112921;28;20446;-64
2024/03/01 02:21:29;;;;;;;5.40;5.10;;;;;;;;;;5117666;28;20438;-65
2024/03/01 02:23:56;;;;;;;3.50;3.40;;;;;;;;;;5116599;28;20464;-64
2024/03/01 02:26:23;;;;;;;13.13;10.60;;;;;;;;;;5118479;28;20467;-65
2024/03/01 02:28:51;;;;;;;31.60;19.00;;;;;;;;;;5122367;28;20864;-65
2024/03/01 02:31:18;;;;;;;18.63;11.53;;;;;;;;;;5103928;28;20473;-65
2024/03/01 02:33:44;;;;;;;4.17;3.97;;;;;;;;;;5109848;28;20492;-65
2024/03/01 02:36:10;;;;;;;3.73;3.60;;;;;;;;;;5116096;28;20472;-64
2024/03/01 02:38:37;;;;;;;11.60;8.07;;;;;;;;;;5126111;28;20453;-65
2024/03/01 02:41:05;;;;;;;6.80;6.10;;;;;;;;;;5125217;28;20465;-64
2024/03/01 02:43:31;;;;;;;10.23;8.03;;;;;;;;;;5119008;28;20442;-65
2024/03/01 02:45:57;;;;;;;19.53;12.27;;;;;;;;;;5119797;28;20478;-65
2024/03/01 02:48:24;;;;;;;15.70;8.00;;;;;;;;;;5116140;28;20455;-65
2024/03/01 02:50:50;;;;;;;10.93;7.90;;;;;;;;;;5125648;28;20465;-64
2024/03/01 02:53:17;;;;;;;7.40;6.87;;;;;;;;;;5127732;28;20462;-65
2024/03/01 02:55:43;;;;;;;6.13;5.33;;;;;;;;;;5109704;28;20475;-64
2024/03/01 02:58:11;;;;;;;8.73;6.90;;;;;;;;;;5121585;28;20473;-64
2024/03/01 03:00:37;;;;;;;7.13;6.43;;;;;;;;;;5113769;28;20447;-64
2024/03/01 03:03:04;;;;;;;11.63;10.63;;;;;;;;;;5113419;28;20530;-64
2024/03/01 03:05:31;;;;;;;4.30;4.13;;;;;;;;;;5123148;28;20502;-64
2024/03/01 03:07:58;;;;;;;6.33;5.73;;;;;;;;;;5113785;28;20529;-64
2024/03/01 03:10:24;;;;;;;16.47;9.93;;;;;;;;;;5122102;28;20495;-64
2024/03/01 03:12:51;;;;;;;13.37;11.20;;;;;;;;;;5117036;28;20468;-64
2024/03/01 03:15:18;;;;;;;3.70;3.60;;;;;;;;;;5102253;28;20478;-64
2024/03/01 03:17:46;;;;;;;6.03;5.50;;;;;;;;;;5123797;28;20492;-65
2024/03/01 03:20:15;;;;;;;10.00;6.83;;;;;;;;;;5127395;28;20453;-64
2024/03/01 03:22:45;;;;;;;5.47;4.90;;;;;;;;;;5122449;28;20537;-64
2024/03/01 03:25:13;;;;;;;3.50;3.40;;;;;;;;;;5125148;28;20442;-64
2024/03/01 03:27:40;;;;;;;14.90;9.63;;;;;;;;;;5124534;28;20462;-64
2024/03/01 03:30:07;;;;;;;21.17;12.70;;;;;;;;;;5121355;27;20497;-64
2024/03/01 03:32:35;;;;;;;7.90;7.17;;;;;;;;;;5130394;27;20438;-64
2024/03/01 03:35:01;;;;;;;5.20;5.00;;;;;;;;;;5128568;27;20521;-64
2024/03/01 03:37:28;;;;;;;7.50;7.10;;;;;;;;;;5120737;27;20496;-64
2024/03/01 03:39:54;;;;;;;5.20;5.00;;;;;;;;;;5123072;27;20584;-64
2024/03/01 03:42:20;;;;;;;5.20;5.00;;;;;;;;;;5125752;27;21096;-64
2024/03/01 03:44:47;;;;;;;14.90;7.80;;;;;;;;;;5130198;27;20445;-64
2024/03/01 03:47:13;;;;;;;8.27;7.53;;;;;;;;;;5125079;27;20514;-64
2024/03/01 03:49:41;;;;;;;3.90;3.80;;;;;;;;;;5110887;28;20521;-64
2024/03/01 03:52:08;;;;;;;11.77;9.53;;;;;;;;;;5123724;27;20910;-64
2024/03/01 03:54:37;;;;;;;10.80;8.60;;;;;;;;;;5125600;27;21302;-64
2024/03/01 03:57:04;;;;;;;6.37;6.07;;;;;;;;;;5110103;28;20451;-64
2024/03/01 03:59:30;;;;;;;5.07;4.57;;;;;;;;;;5132612;27;20483;-64
2024/03/01 04:01:57;;;;;;;6.40;5.90;;;;;;;;;;5124638;27;20552;-64
2024/03/01 04:04:23;;;;;;;16.70;11.77;;;;;;;;;;5116274;27;20526;-65
2024/03/01 04:06:51;;;;;;;5.40;4.83;;;;;;;;;;5128554;27;20458;-63
2024/03/01 04:09:17;;;;;;;4.70;4.50;;;;;;;;;;5132483;27;20490;-64
2024/03/01 04:11:44;;;;;;;13.40;8.80;;;;;;;;;;5131221;27;20481;-64
2024/03/01 04:14:10;;;;;;;3.63;3.53;;;;;;;;;;5121435;27;20447;-64
2024/03/01 04:16:37;;;;;;;22.93;12.20;;;;;;;;;;5113979;27;20467;-64
2024/03/01 04:19:08;;;;;;;11.17;9.93;;;;;;;;;;5115827;27;20474;-64
2024/03/01 04:21:34;;;;;;;5.10;4.70;;;;;;;;;;5112996;28;20493;-64
2024/03/01 04:24:07;;;;;;;28.10;14.63;;;;;;;;;;5128288;27;20477;-64
2024/03/01 04:26:34;;;;;;;9.63;6.47;;;;;;;;;;5129551;27;20822;-64
2024/03/01 04:29:00;;;;;;;8.30;6.93;;;;;;;;;;5124468;27;20464;-64
2024/03/01 04:31:26;;;;;;;3.27;3.17;;;;;;;;;;5114346;27;20475;-64
2024/03/01 04:33:54;;;;;;;3.50;3.40;;;;;;;;;;5121755;27;20441;-64
2024/03/01 04:36:20;;;;;;;7.53;5.27;;;;;;;;;;5118332;27;20471;-64
2024/03/01 04:38:47;;;;;;;2.80;2.70;;;;;;;;;;5109831;28;20513;-64
2024/03/01 04:41:16;;;;;;;2.30;2.20;;;;;;;;;;5113985;27;21033;-64
2024/03/01 04:43:43;;;;;;;2.70;2.60;;;;;;;;;;5108253;28;20625;-64
2024/03/01 04:46:09;;;;;;;6.70;6.40;;;;;;;;;;5125136;27;20508;-64
2024/03/01 04:48:36;;;;;;;8.23;6.73;;;;;;;;;;5126880;27;20582;-64
2024/03/01 04:51:02;;;;;;;4.83;4.43;;;;;;;;;;5114877;28;20475;-64
2024/03/01 04:53:29;;;;;;;7.00;6.53;;;;;;;;;;5124893;27;20591;-64
2024/03/01 04:55:55;;;;;;;7.13;6.50;;;;;;;;;;5111873;27;20482;-64
2024/03/01 04:58:23;;;;;;;13.03;8.70;;;;;;;;;;5131619;27;20505;-64
2024/03/01 05:00:49;;;;;;;16.63;9.93;;;;;;;;;;5127975;27;20467;-64
2024/03/01 05:03:16;;;;;;;2.30;2.20;;;;;;;;;;5122838;27;20469;-64
2024/03/01 05:05:42;;;;;;;5.07;4.63;;;;;;;;;;5111346;27;20489;-64
2024/03/01 05:08:09;;;;;;;6.17;5.77;;;;;;;;;;5120372;27;20506;-64
2024/03/01 05:10:36;;;;;;;2.70;2.60;;;;;;;;;;5116069;27;20493;-64
2024/03/01 05:13:03;;;;;;;6.77;6.27;;;;;;;;;;5106580;28;20467;-64
2024/03/01 05:15:30;;;;;;;5.23;3.90;;;;;;;;;;5118752;27;20447;-64
2024/03/01 05:17:57;;;;;;;2.33;2.23;;;;;;;;;;5127647;27;20469;-64
2024/03/01 05:20:23;;;;;;;8.40;6.03;;;;;;;;;;5111743;27;20439;-64
2024/03/01 05:22:50;;;;;;;5.40;5.00;;;;;;;;;;5120274;27;20531;-64
2024/03/01 05:25:16;;;;;;;4.40;4.10;;;;;;;;;;5121677;27;20496;-64
2024/03/01 05:27:42;;;;;;;4.77;4.37;;;;;;;;;;5120542;27;21167;-64
2024/03/01 05:30:11;;;;;;;2.37;2.27;;;;;;;;;;5127470;27;20516;-64
2024/03/01 05:32:41;;;;;;;3.20;3.07;;;;;;;;;;5121727;27;20445;-65
2024/03/01 05:35:07;;;;;;;2.20;2.10;;;;;;;;;;5124418;27;21010;-65
2024/03/01 05:37:34;;;;;;;3.37;3.07;;;;;;;;;;5118468;28;20529;-65
2024/03/01 05:40:01;;;;;;;2.10;2.00;;;;;;;;;;5125067;27;20505;-64
2024/03/01 05:42:27;;;;;;;5.13;4.83;;;;;;;;;;5121638;27;21031;-64
2024/03/01 05:44:54;;;;;;;8.10;7.37;;;;;;;;;;5122237;27;20482;-64
2024/03/01 05:47:20;;;;;;;7.30;6.80;;;;;;;;;;5117238;27;20441;-65
2024/03/01 05:49:48;;;;;;;13.23;10.33;;;;;;;;;;5118467;27;20450;-64
2024/03/01 05:52:14;;;;;;;6.10;5.90;;;;;;;;;;5128706;27;20494;-64
2024/03/01 05:54:41;;;;;;;3.03;2.93;;;;;;;;;;5112857;27;20474;-65
2024/03/01 05:57:10;;;;;;;2.30;2.20;;;;;;;;;;5128638;27;20480;-64
2024/03/01 05:59:36;;;;;;;10.33;5.00;;;;;;;;;;5121992;27;20453;-65
2024/03/01 06:02:02;;;;;;;5.17;4.60;;;;;;;;;;5106244;27;20474;-65
2024/03/01 06:04:29;;;;;;;5.17;4.70;;;;;;;;;;5111342;27;20485;-65
2024/03/01 06:06:57;;;;;;;3.80;3.60;;;;;;;;;;5104252;28;20479;-67
2024/03/01 06:09:23;;;;;;;10.30;5.50;;;;;;;;;;5120985;28;20450;-67
2024/03/01 06:11:49;;;;;;;5.23;4.90;;;;;;;;;;5124278;27;20541;-67
2024/03/01 06:14:17;;;;;;;15.00;6.27;;;;;;;;;;5122516;27;20463;-67
2024/03/01 06:16:44;;;;;;;13.10;7.27;;;;;;;;;;5107360;28;20452;-67
2024/03/01 06:19:10;;;;;;;7.30;6.90;;;;;;;;;;5112669;28;20502;-65
2024/03/01 06:21:37;;;;;;;4.23;4.07;;;;;;;;;;5131032;28;21129;-65
2024/03/01 06:24:05;;;;;;;6.07;5.77;;;;;;;;;;5120929;28;20488;-65
2024/03/01 06:26:34;;;;;;;12.17;6.70;;;;;;;;;;5130480;28;20493;-65
2024/03/01 06:29:01;;;;;;;12.80;7.00;;;;;;;;;;5117343;28;20481;-65
2024/03/01 06:31:27;;;;;;;8.17;7.43;;;;;;;;;;5113932;28;20498;-64
2024/03/01 06:33:53;;;;;;;4.47;4.20;;;;;;;;;;5110516;28;20485;-65
2024/03/01 06:36:20;;;;;;;4.17;3.97;;;;;;;;;;5110770;28;20875;-66
2024/03/01 06:38:46;;;;;;;5.43;5.03;;;;;;;;;;5124510;28;20516;-64
2024/03/01 06:41:14;;;;;;;15.83;8.10;;;;;;;;;;5128900;28;20480;-64
2024/03/01 06:43:40;;;;;;;3.30;3.10;;;;;;;;;;5116488;28;20523;-64
2024/03/01 06:46:07;;;;;;;8.20;7.47;;;;;;;;;;5113255;28;20529;-64
2024/03/01 06:48:34;;;;;;;2.80;2.70;;;;;;;;;;5124568;28;20478;-64
2024/03/01 06:51:00;;;;;;;2.80;2.70;;;;;;;;;;5112221;28;20541;-64
2024/03/01 06:53:27;;;;;;;2.97;2.87;;;;;;;;;;5120285;28;20437;-64
2024/03/01 06:55:55;;;;;;;4.53;4.23;;;;;;;;;;5120899;28;20929;-64
2024/03/01 06:58:22;;;;;;;3.10;3.00;;;;;;;;;;5116845;28;20450;-64
2024/03/01 07:00:49;;;;;;;2.73;2.63;;;;;;;;;;5121164;28;21044;-64
2024/03/01 07:03:15;;;;;;;8.73;6.63;;;;;;;;;;5125114;28;20450;-64
2024/03/01 07:05:42;;;;;;;2.80;2.70;;;;;;;;;;5128359;27;20470;-64
2024/03/01 07:08:08;;;;;;;5.97;5.70;;;;;;;;;;5131870;27;20478;-64
2024/03/01 07:10:35;;;;;;;2.50;2.40;;;;;;;;;;5125148;27;20446;-64
2024/03/01 07:13:01;;;;;;;2.93;2.83;;;;;;;;;;5121431;27;20434;-65
2024/03/01 07:15:29;;;;;;;4.77;4.47;;;;;;;;;;5119053;27;20474;-64
2024/03/01 07:17:56;;;;;;;3.57;3.47;;;;;;;;;;5118020;27;20446;-64
2024/03/01 07:20:22;;;;;;;9.80;5.73;;;;;;;;;;5124457;27;20497;-64
2024/03/01 07:22:49;;;;;;;3.43;3.33;;;;;;;;;;5114154;27;20541;-64
2024/03/01 07:25:15;;;;;;;6.13;5.60;;;;;;;;;;5119479;27;21032;-64
2024/03/01 07:27:42;;;;;;;4.60;3.97;;;;;;;;;;5119718;27;20668;-65
2024/03/01 07:30:09;;;;;;;3.00;2.90;;;;;;;;;;5124962;27;20482;-65
2024/03/01 07:32:37;;;;;;;7.13;6.43;;;;;;;;;;5121111;28;20497;-65
2024/03/01 07:35:05;;;;;;;7.77;6.60;;;;;;;;;;5129165;27;20465;-69
2024/03/01 07:37:31;;;;;;;11.07;7.87;;;;;;;;;;5116668;27;20829;-67
2024/03/01 07:39:58;;;;;;;4.80;4.50;;;;;;;;;;5131401;27;20473;-68
2024/03/01 07:42:24;;;;;;;3.20;3.10;;;;;;;;;;5120259;27;20454;-68
2024/03/01 07:44:51;;;;;;;8.97;7.93;;;;;;;;;;5128000;27;20481;-67
2024/03/01 07:47:17;;;;;;;7.87;7.27;;;;;;;;;;5124462;27;20478;-67
2024/03/01 07:49:48;;;;;;;4.63;4.33;;;;;;;;;;5123913;27;20521;-68
2024/03/01 07:52:15;;;;;;;4.40;3.97;;;;;;;;;;5132782;27;20514;-68
2024/03/01 07:54:41;;;;;;;4.80;4.50;;;;;;;;;;5121137;27;20477;-67
2024/03/01 07:57:08;;;;;;;3.60;3.50;;;;;;;;;;5124774;27;20445;-67
2024/03/01 07:59:34;;;;;;;3.50;3.40;;;;;;;;;;5126216;27;20511;-82
2024/03/01 08:02:01;;;;;;;6.50;6.10;;;;;;;;;;5126023;27;20499;-78
2024/03/01 08:04:28;;;;;;;4.50;4.30;;;;;;;;;;5122071;27;20452;-80
2024/03/01 08:06:56;;;;;;;16.00;10.47;;;;;;;;;;5124969;27;20438;-79
2024/03/01 08:09:32;;;;;;;10.83;7.63;;;;;;;;;;5135234;27;21029;-85
2024/03/01 08:11:59;;;;;;;8.63;4.70;;;;;;;;;;5126405;27;20541;-82
2024/03/01 08:14:27;;;;;;;4.80;4.47;;;;;;;;;;5115656;27;20469;-84
2024/03/01 08:16:54;;;;;;;6.87;6.33;;;;;;;;;;5137023;27;20449;-84
2024/03/01 08:19:21;;;;;;;5.70;5.30;;;;;;;;;;5133825;27;20439;-84
2024/03/01 08:21:47;;;;;;;4.60;4.30;;;;;;;;;;5140259;27;20460;-81
2024/03/01 08:24:21;;;;;;;5.90;5.60;;;;;;;;;;5122631;27;20458;-81
2024/03/01 08:26:47;;;;;;;4.63;4.33;;;;;;;;;;5129223;27;20445;-88
2024/03/01 08:29:14;;;;;;;6.10;5.50;;;;;;;;;;5121488;27;20499;-79
2024/03/01 08:31:40;;;;;;;6.40;5.90;;;;;;;;;;5131504;27;20511;-79
2024/03/01 08:34:08;;;;;;;7.57;6.30;;;;;;;;;;5127474;27;20520;-77
2024/03/01 08:36:35;;;;;;;5.23;4.67;;;;;;;;;;5128469;27;20485;-80
2024/03/01 08:39:10;;;;;;;3.90;3.80;;;;;;;;;;5119026;27;20811;-78
2024/03/01 08:41:39;;;;;;;6.20;5.70;;;;;;;;;;5131127;27;20513;-81
2024/03/01 08:44:19;;;;;;;4.10;4.00;;;;;;;;;;5127925;27;20942;-76
2024/03/01 08:46:46;;;;;;;4.93;4.73;;;;;;;;;;5117079;27;20461;-82
2024/03/01 08:49:27;;;;;;;7.30;6.73;;;;;;;;;;5128820;27;20442;-80
2024/03/01 08:51:54;;;;;;;6.30;5.80;;;;;;;;;;5121546;27;20481;-77
2024/03/01 08:54:26;;;;;;;6.07;5.67;;;;;;;;;;5127594;27;20468;-77
2024/03/01 08:57:02;;;;;;;7.03;6.67;;;;;;;;;;5119606;27;20963;-81
2024/03/01 08:59:44;;;;;;;4.00;3.80;;;;;;;;;;5117450;27;20529;-74
2024/03/01 09:02:33;;;;;;;8.93;8.63;;;;;;;;;;5120262;27;20528;-81
2024/03/01 09:05:00;;;;;;;8.40;5.77;;;;;;;;;;5126310;27;20438;-80
2024/03/01 09:07:28;;;;;;;5.00;4.70;;;;;;;;;;5131481;27;20442;-77
2024/03/01 09:09:55;;;;;;;10.43;9.50;;;;;;;;;;5129566;27;20457;-81
2024/03/01 09:12:24;;;;;;;10.67;9.83;;;;;;;;;;5132161;27;20507;-77
2024/03/01 09:14:51;;;;;;;5.33;4.93;;;;;;;;;;5127727;27;20432;-79
2024/03/01 09:17:19;;;;;;;3.83;3.63;;;;;;;;;;5127878;27;20487;-78
2024/03/01 09:19:47;;;;;;;4.57;4.17;;;;;;;;;;5121195;27;20742;-78
2024/03/01 09:22:14;;;;;;;3.90;3.80;;;;;;;;;;5122012;27;20472;-78
2024/03/01 09:24:41;;;;;;;4.03;3.83;;;;;;;;;;5125032;27;20461;-78
2024/03/01 09:27:22;;;;;;;5.73;5.30;;;;;;;;;;5115489;27;20450;-78
2024/03/01 09:29:50;;;;;;;8.67;7.93;;;;;;;;;;5122809;27;20465;-79
2024/03/01 09:32:16;;;;;;;5.90;5.50;;;;;;;;;;5119059;28;20474;-75
2024/03/01 09:34:43;;;;;;;4.80;4.60;;;;;;;;;;5120342;27;20639;-81
2024/03/01 09:37:12;;;;;;;5.23;5.03;;;;;;;;;;5120744;27;20898;-78
2024/03/01 09:39:39;;;;;;;6.63;6.13;;;;;;;;;;5125387;27;20506;-77
2024/03/01 09:42:16;;;;;;;12.67;7.90;;;;;;;;;;5111802;27;20454;-77
2024/03/01 09:44:57;;;;;;;12.50;4.93;;;;;;;;;;5120121;27;20951;-78
2024/03/01 09:47:27;;;;;;;8.43;7.83;;;;;;;;;;5124004;27;20477;-79
2024/03/01 09:50:03;;;;;;;5.17;4.87;;;;;;;;;;5126294;27;20493;-78
2024/03/01 09:52:35;;;;;;;6.40;5.80;;;;;;;;;;5121130;27;20462;-75
2024/03/01 09:55:04;;;;;;;5.67;5.37;;;;;;;;;;5117496;28;20864;-76
2024/03/01 09:57:35;;;;;;;5.37;5.07;;;;;;;;;;5118061;27;20507;-79
2024/03/01 10:00:08;;;;;;;3.93;3.83;;;;;;;;;;5108030;28;20448;-80
2024/03/01 10:02:37;;;;;;;6.00;5.70;;;;;;;;;;5117988;27;20447;-79
2024/03/01 10:05:19;;;;;;;4.17;3.97;;;;;;;;;;5119203;27;20515;-76
2024/03/01 10:07:50;;;;;;;5.83;5.30;;;;;;;;;;5128802;27;20473;-75
2024/03/01 10:10:33;;;;;;;5.03;4.73;;;;;;;;;;5117988;27;20458;-74
2024/03/01 10:13:06;;;;;;;5.47;4.97;;;;;;;;;;5108618;28;20470;-75
2024/03/01 10:15:38;;;;;;;3.40;3.10;;;;;;;;;;5107340;28;20561;-79
2024/03/01 10:18:13;;;;;;;5.10;4.87;;;;;;;;;;5112691;27;20434;-73
2024/03/01 10:20:46;;;;;;;16.07;6.30;;;;;;;;;;5117785;28;20549;-79
2024/03/01 10:23:21;;;;;;;4.00;3.90;;;;;;;;;;5112383;28;20431;-76
2024/03/01 10:25:54;;;;;;;6.43;4.87;;;;;;;;;;5115353;28;20450;-78
2024/03/01 10:28:30;;;;;;;3.20;3.10;;;;;;;;;;5117525;28;20446;-78
2024/03/01 10:31:00;;;;;;;4.07;3.90;;;;;;;;;;5114071;28;20562;-77
2024/03/01 10:33:33;;;;;;;2.80;2.70;;;;;;;;;;5117293;28;20474;-78
2024/03/01 10:36:14;;;;;;;3.60;3.50;;;;;;;;;;5118766;28;20475;-76
2024/03/01 10:38:47;;;;;;;4.97;4.10;;;;;;;;;;5113077;27;20466;-76
2024/03/01 10:41:16;;;;;;;6.60;4.83;;;;;;;;;;5132063;27;20529;-77
2024/03/01 10:43:50;;;;;;;4.67;4.37;;;;;;;;;;5121978;27;20516;-75
2024/03/01 10:46:24;;;;;;;2.90;2.80;;;;;;;;;;5121006;28;21031;-75
2024/03/01 10:48:59;;;;;;;4.27;4.07;;;;;;;;;;5120263;27;20458;-79
2024/03/01 10:51:32;;;;;;;3.37;3.27;;;;;;;;;;5115161;28;20449;-79
2024/03/01 10:54:00;;;;;;;4.40;4.10;;;;;;;;;;5128628;27;20461;-76
2024/03/01 10:56:27;;;;;;;2.80;2.70;;;;;;;;;;5123141;27;20794;-76
2024/03/01 10:58:55;;;;;;;3.17;3.07;;;;;;;;;;5131881;27;20471;-75
2024/03/01 11:01:27;;;;;;;3.10;3.00;;;;;;;;;;5116755;27;20964;-79
2024/03/01 11:03:57;;;;;;;5.17;4.93;;;;;;;;;;5121127;27;20474;-78
2024/03/01 11:06:30;;;;;;;3.67;3.47;;;;;;;;;;5127282;27;20482;-74
2024/03/01 11:08:58;;;;;;;3.20;3.10;;;;;;;;;;5124953;27;20442;-78
2024/03/01 11:11:28;;;;;;;3.50;3.40;;;;;;;;;;5131326;27;20457;-79
2024/03/01 11:13:56;;;;;;;3.67;3.57;;;;;;;;;;5132048;27;20911;-78
2024/03/01 11:16:28;;;;;;;5.57;5.20;;;;;;;;;;5124988;27;20446;-79
2024/03/01 11:18:57;;;;;;;4.97;4.77;;;;;;;;;;5129950;27;20446;-78
2024/03/01 11:21:25;;;;;;;2.80;2.70;;;;;;;;;;5123076;27;20451;-79
2024/03/01 11:23:51;;;;;;;3.77;3.57;;;;;;;;;;5126954;27;20531;-78
2024/03/01 11:26:21;;;;;;;4.30;4.10;;;;;;;;;;5125199;27;20460;-79
2024/03/01 11:28:49;;;;;;;9.23;5.07;;;;;;;;;;5120732;27;20445;-79
2024/03/01 11:31:20;;;;;;;5.20;4.80;;;;;;;;;;5127662;27;20487;-79
2024/03/01 11:33:49;;;;;;;4.73;4.43;;;;;;;;;;5130194;27;20490;-79
2024/03/01 11:36:28;;;;;;;5.93;4.57;;;;;;;;;;5125973;27;20970;-79
2024/03/01 11:38:59;;;;;;;11.27;10.57;;;;;;;;;;5105531;27;20483;-79
2024/03/01 11:41:28;;;;;;;3.20;3.10;;;;;;;;;;5134961;27;20519;-79
2024/03/01 11:44:02;;;;;;;3.20;3.10;;;;;;;;;;5125556;27;20465;-79
2024/03/01 11:46:41;;;;;;;14.40;4.27;;;;;;;;;;5111871;27;20454;-79
2024/03/01 11:49:19;;;;;;;5.70;5.30;;;;;;;;;;5125988;27;20468;-79
2024/03/01 11:51:52;;;;;;;3.53;3.33;;;;;;;;;;5129584;27;20448;-79
2024/03/01 11:54:31;;;;;;;5.93;4.20;;;;;;;;;;5121396;27;20495;-79
2024/03/01 11:57:04;;;;;;;3.43;3.23;;;;;;;;;;5116808;27;20482;-78
2024/03/01 11:59:46;;;;;;;2.53;2.43;;;;;;;;;;5118636;28;20453;-78
2024/03/01 12:02:17;;;;;;;3.80;3.60;;;;;;;;;;5121337;27;20541;-79
2024/03/01 12:05:02;;;;;;;3.20;3.10;;;;;;;;;;5116702;27;20453;-79
2024/03/01 12:07:42;;;;;;;2.20;2.10;;;;;;;;;;5117203;27;20484;-79
2024/03/01 12:10:15;;;;;;;2.47;2.37;;;;;;;;;;5113218;27;20461;-79
2024/03/01 12:12:45;;;;;;;5.13;4.73;;;;;;;;;;5126946;27;20497;-79
2024/03/01 12:15:14;;;;;;;2.40;2.30;;;;;;;;;;5118989;28;20438;-79
2024/03/01 12:17:44;;;;;;;5.90;5.50;;;;;;;;;;5119721;28;21251;-79
2024/03/01 12:20:13;;;;;;;3.80;3.67;;;;;;;;;;5123938;27;20553;-79
2024/03/01 12:22:59;;;;;;;3.80;3.70;;;;;;;;;;5132816;27;20449;-79
2024/03/01 12:25:26;;;;;;;4.23;4.03;;;;;;;;;;5117398;28;20443;-79
2024/03/01 12:28:00;;;;;;;4.40;4.23;;;;;;;;;;5118913;28;20458;-79
2024/03/01 12:30:28;;;;;;;4.13;4.03;;;;;;;;;;5120429;27;20571;-79
2024/03/01 12:33:12;;;;;;;4.93;4.73;;;;;;;;;;5134951;27;20472;-79
2024/03/01 12:35:44;;;;;;;4.00;3.90;;;;;;;;;;5126701;27;20880;-79
2024/03/01 12:38:18;;;;;;;7.20;6.80;;;;;;;;;;5125721;27;20450;-79
2024/03/01 12:41:00;;;;;;;5.93;5.63;;;;;;;;;;5120376;27;20515;-79
2024/03/01 12:43:33;;;;;;;3.83;3.73;;;;;;;;;;5127691;27;20449;-79
2024/03/01 12:46:05;;;;;;;4.90;4.60;;;;;;;;;;5130145;27;20472;-78
2024/03/01 12:48:38;;;;;;;4.33;4.23;;;;;;;;;;5132438;27;20912;-79
2024/03/01 12:51:09;;;;;;;3.63;3.53;;;;;;;;;;5113573;28;20981;-78
2024/03/01 12:53:51;;;;;;;3.43;3.33;;;;;;;;;;5123249;27;20484;-79
2024/03/01 12:56:23;;;;;;;5.73;5.33;;;;;;;;;;5121396;27;20464;-78
2024/03/01 12:58:56;;;;;;;3.77;3.57;;;;;;;;;;5128737;27;20450;-78
2024/03/01 13:01:28;;;;;;;3.50;3.40;;;;;;;;;;5121668;27;20490;-79
2024/03/01 13:03:58;;;;;;;7.93;5.33;;;;;;;;;;5118934;28;20449;-79
2024/03/01 13:06:25;;;;;;;3.60;3.50;;;;;;;;;;5123012;27;20449;-79
2024/03/01 13:08:58;;;;;;;7.70;7.20;;;;;;;;;;5120038;27;20433;-79
2024/03/01 13:11:24;;;;;;;7.17;5.30;;;;;;;;;;5115682;27;20442;-79
2024/03/01 13:13:54;;;;;;;3.43;3.33;;;;;;;;;;5123956;27;20503;-79
2024/03/01 13:16:20;;;;;;;3.47;3.20;;;;;;;;;;5127790;27;20667;-79
2024/03/01 13:18:51;;;;;;;4.33;4.13;;;;;;;;;;5125487;27;20525;-79
2024/03/01 13:21:23;;;;;;;18.80;6.03;;;;;;;;;;5129331;27;20450;-79
2024/03/01 13:23:55;;;;;;;5.30;5.00;;;;;;;;;;5128262;27;20447;-79
2024/03/01 13:26:39;;;;;;;5.67;5.33;;;;;;;;;;5122323;27;20486;-78
2024/03/01 13:29:11;;;;;;;6.40;5.90;;;;;;;;;;5120267;27;20477;-78
2024/03/01 13:31:42;;;;;;;4.87;4.63;;;;;;;;;;5114665;28;20941;-78
2024/03/01 13:34:09;;;;;;;4.93;4.73;;;;;;;;;;5110651;27;20539;-78
2024/03/01 13:36:36;;;;;;;8.87;8.10;;;;;;;;;;5123301;27;20460;-78
2024/03/01 13:39:11;;;;;;;5.87;5.40;;;;;;;;;;5128043;27;20512;-78
2024/03/01 13:41:44;;;;;;;4.70;4.40;;;;;;;;;;5118884;27;20460;-77
2024/03/01 13:44:17;;;;;;;6.80;6.27;;;;;;;;;;5117362;27;20974;-77
2024/03/01 13:46:43;;;;;;;6.67;6.10;;;;;;;;;;5121395;27;20454;-78
2024/03/01 13:49:11;;;;;;;3.57;3.37;;;;;;;;;;5102027;28;20471;-77
2024/03/01 13:51:38;;;;;;;4.13;3.87;;;;;;;;;;5113550;27;20465;-78
2024/03/01 13:54:05;;;;;;;6.97;6.40;;;;;;;;;;5105500;27;20518;-78
2024/03/01 13:56:34;;;;;;;3.20;3.00;;;;;;;;;;5130410;27;20499;-78
2024/03/01 13:59:03;;;;;;;4.03;3.63;;;;;;;;;;5125451;27;20454;-78
2024/03/01 14:01:29;;;;;;;5.33;5.00;;;;;;;;;;5117340;28;20485;-80
2024/03/01 14:03:58;;;;;;;3.47;3.27;;;;;;;;;;5124709;27;20557;-79
2024/03/01 14:06:24;;;;;;;4.10;3.80;;;;;;;;;;5128406;27;20465;-79
2024/03/01 14:08:52;;;;;;;5.03;4.63;;;;;;;;;;5122492;27;20923;-79
2024/03/01 14:11:18;;;;;;;5.63;5.20;;;;;;;;;;5109660;28;20486;-79
2024/03/01 14:13:48;;;;;;;4.73;4.43;;;;;;;;;;5113186;28;20506;-80
2024/03/01 14:16:17;;;;;;;12.13;8.47;;;;;;;;;;5120760;27;20442;-79
2024/03/01 14:18:44;;;;;;;5.00;4.80;;;;;;;;;;5126942;27;20568;-79
2024/03/01 14:21:10;;;;;;;4.17;4.03;;;;;;;;;;5123428;27;20454;-78
2024/03/01 14:23:38;;;;;;;5.17;4.83;;;;;;;;;;5119147;27;20430;-79
2024/03/01 14:26:05;;;;;;;4.37;4.07;;;;;;;;;;5107161;28;20492;-79
2024/03/01 14:28:32;;;;;;;6.27;5.87;;;;;;;;;;5124718;28;20529;-78
2024/03/01 14:30:59;;;;;;;6.77;6.37;;;;;;;;;;5112937;28;20454;-78
2024/03/01 14:33:27;;;;;;;8.07;7.47;;;;;;;;;;5125282;28;20484;-78
2024/03/01 14:36:03;;;;;;;5.87;5.50;;;;;;;;;;5116347;28;20459;-79
2024/03/01 14:38:30;;;;;;;5.00;4.80;;;;;;;;;;5123472;28;20458;-79
2024/03/01 14:40:57;;;;;;;3.80;3.70;;;;;;;;;;5125273;28;20487;-79
2024/03/01 14:43:24;;;;;;;3.80;3.70;;;;;;;;;;5117103;28;20481;-79
2024/03/01 14:45:52;;;;;;;4.87;4.70;;;;;;;;;;5118602;28;20457;-78
2024/03/01 14:48:24;;;;;;;5.20;4.97;;;;;;;;;;5120833;28;20446;-77
2024/03/01 14:50:56;;;;;;;7.13;6.47;;;;;;;;;;5126196;28;20518;-78